Scenic, South Dakota
Current Conditions -  °F | °C
As of 10:52 AM on Friday 28 Nov 2014 (Local Time) from KRAP Reporting Station
Clear Clear  
Wind Chill: 13°   Ceiling: Unl
Heat Index: 13°   Visibility: 10mi
Dew Point:   Wind: 0mph
Humidity: 47%   Direction: NA
Pressure: 29.67"   Gusts: NA
Location:  43.78°N, 102.56°W
Report Text: KRAP 281752Z 00000KT 10SM CLR 13/02 A2967 RMK AO2 SLP051 T01280017 10128 20006 58013
Loading
Personal Weather Stations






























Interactive Weather Map New forecast layout! Learn more

10-Day Weather Forecast

Advertisements
Track Severe Weather on mobile